Time;durP1;ratioP1;P1;durP2;ratioP2;P2;SDS_P1;SDS_P2;PMS_P1;PMS_P2;Temp;Humidity;BMP_temperature;BMP_pressure;BME280_temperature;BME280_humidity;BME280_pressure;Samples;Min_cycle;Max_cycle;Signal;HPM_P1;HPM_P2
2023/07/10 03:16:59;;;;;;;5.20;2.03;;;24.50;55.70;;;;;;6125986;22;88460;-65
2023/07/10 03:19:28;;;;;;;6.45;1.70;;;24.40;60.10;;;;;;6158963;22;87667;-66
2023/07/10 03:21:54;;;;;;;6.53;1.70;;;24.10;63.20;;;;;;6157474;22;89531;-65
2023/07/10 03:24:20;;;;;;;6.32;1.75;;;24.00;64.20;;;;;;6156551;22;89170;-66
2023/07/10 03:26:49;;;;;;;10.10;1.83;;;23.90;64.10;;;;;;6158343;22;87252;-68
2023/07/10 03:29:15;;;;;;;4.40;1.58;;;23.70;64.30;;;;;;6159316;22;87642;-68
2023/07/10 03:31:43;;;;;;;5.85;1.65;;;23.60;64.60;;;;;;6158040;22;89621;-67
2023/07/10 03:34:12;;;;;;;7.75;1.85;;;23.50;64.40;;;;;;6157204;22;89861;-66
2023/07/10 03:36:38;;;;;;;5.70;1.85;;;23.40;63.80;;;;;;6155894;22;87454;-67
2023/07/10 03:39:04;;;;;;;5.47;2.03;;;23.40;63.50;;;;;;6154385;22;86659;-67
2023/07/10 03:41:30;;;;;;;3.92;1.70;;;23.40;63.90;;;;;;6156710;22;87468;-67
2023/07/10 03:43:55;;;;;;;7.80;1.80;;;23.40;65.10;;;;;;6157637;22;87694;-67
2023/07/10 03:46:21;;;;;;;6.03;1.67;;;23.30;65.50;;;;;;6157819;22;88275;-66
2023/07/10 03:48:47;;;;;;;3.28;1.45;;;23.40;63.90;;;;;;6158207;22;86983;-67
2023/07/10 03:51:14;;;;;;;5.20;1.75;;;23.40;63.40;;;;;;6157552;22;87817;-67
2023/07/10 03:53:40;;;;;;;11.02;1.58;;;23.40;63.60;;;;;;6158278;22;87842;-68
2023/07/10 03:56:06;;;;;;;5.18;1.35;;;23.40;61.80;;;;;;6158529;22;87336;-66
2023/07/10 03:58:34;;;;;;;5.32;1.20;;;23.40;60.70;;;;;;6158018;22;87462;-67
2023/07/10 04:01:01;;;;;;;5.55;1.50;;;23.50;59.90;;;;;;6156052;22;87764;-67
2023/07/10 04:03:30;;;;;;;3.83;1.42;;;23.60;59.70;;;;;;6156028;22;88150;-69
2023/07/10 04:05:57;;;;;;;6.05;1.45;;;23.70;59.40;;;;;;6155712;22;87308;-70
2023/07/10 04:08:29;;;;;;;5.47;1.55;;;23.80;59.10;;;;;;6158548;22;87575;-70
2023/07/10 04:10:58;;;;;;;4.30;1.33;;;23.90;59.40;;;;;;6157301;22;88306;-72
2023/07/10 04:13:24;;;;;;;4.65;1.45;;;23.90;59.30;;;;;;6158494;22;88199;-69
2023/07/10 04:16:07;;;;;;;6.50;1.60;;;23.90;59.20;;;;;;6158599;22;87248;-70
2023/07/10 04:18:35;;;;;;;7.60;1.70;;;23.90;58.80;;;;;;6098668;23;87715;-71
2023/07/10 04:21:02;;;;;;;5.50;1.85;;;23.90;59.00;;;;;;6098220;23;88544;-69
2023/07/10 04:23:28;;;;;;;5.38;2.00;;;23.90;58.40;;;;;;6098543;23;87198;-70
2023/07/10 04:25:55;;;;;;;6.32;1.65;;;23.90;58.30;;;;;;6098447;23;87326;-69
2023/07/10 04:28:20;;;;;;;6.28;1.90;;;23.90;58.50;;;;;;6099388;23;86908;-68
2023/07/10 04:30:47;;;;;;;5.10;1.80;;;23.90;58.90;;;;;;6098616;23;88487;-68
2023/07/10 04:33:14;;;;;;;6.03;1.55;;;23.80;58.90;;;;;;6098904;23;87839;-69
2023/07/10 04:35:41;;;;;;;5.22;1.52;;;23.90;58.80;;;;;;6097586;23;89270;-71
2023/07/10 04:38:07;;;;;;;9.55;1.90;;;23.90;58.80;;;;;;6098017;23;87051;-68
2023/07/10 04:40:34;;;;;;;5.05;1.80;;;23.90;59.00;;;;;;6097719;23;88106;-71
2023/07/10 04:43:04;;;;;;;10.55;1.65;;;23.90;58.80;;;;;;6098511;23;87212;-70
2023/07/10 04:45:30;;;;;;;6.50;1.83;;;23.90;58.50;;;;;;6098498;23;87381;-72
2023/07/10 04:47:56;;;;;;;7.10;2.20;;;24.00;59.20;;;;;;6096680;23;87226;-70
2023/07/10 04:50:22;;;;;;;6.93;1.70;;;24.10;60.10;;;;;;6096495;23;88214;-68
2023/07/10 04:52:48;;;;;;;7.32;2.25;;;24.10;60.70;;;;;;6095778;23;88847;-69
2023/07/10 04:55:14;;;;;;;6.20;2.25;;;24.10;60.90;;;;;;6095608;23;87258;-70
2023/07/10 04:57:40;;;;;;;8.63;2.00;;;24.00;62.60;;;;;;6095963;23;87127;-70
2023/07/10 05:00:06;;;;;;;8.27;2.00;;;24.00;62.50;;;;;;6094263;23;89039;-70
2023/07/10 05:02:32;;;;;;;8.68;1.88;;;24.00;62.70;;;;;;6096541;23;88693;-69
2023/07/10 05:04:57;;;;;;;5.20;1.90;;;24.00;62.60;;;;;;6090510;23;87612;-73
2023/07/10 05:07:23;;;;;;;7.15;2.58;;;24.10;62.40;;;;;;6091718;23;87494;-71
2023/07/10 05:09:48;;;;;;;8.98;1.83;;;24.10;61.80;;;;;;6093929;23;87760;-68
2023/07/10 05:12:16;;;;;;;10.55;2.00;;;24.10;61.40;;;;;;6095644;23;88186;-68
2023/07/10 05:14:41;;;;;;;7.45;1.60;;;24.30;60.50;;;;;;6068723;23;87591;-71
2023/07/10 05:17:07;;;;;;;6.38;2.10;;;24.40;60.00;;;;;;6109202;23;86955;-72
2023/07/10 05:19:33;;;;;;;6.93;1.75;;;24.60;58.80;;;;;;6119115;23;87772;-70
2023/07/10 05:22:01;;;;;;;11.05;2.10;;;24.70;58.20;;;;;;6124500;23;88930;-70
2023/07/10 05:24:27;;;;;;;14.95;2.17;;;24.80;59.70;;;;;;6119698;23;88183;-69
2023/07/10 05:26:52;;;;;;;11.98;2.72;;;24.90;62.10;;;;;;6119307;23;87778;-68
2023/07/10 05:29:18;;;;;;;13.57;2.42;;;25.00;62.10;;;;;;6124423;23;89044;-70
2023/07/10 05:31:44;;;;;;;12.20;2.17;;;25.00;62.70;;;;;;6124798;23;87977;-69
2023/07/10 05:34:10;;;;;;;9.55;2.10;;;25.00;62.20;;;;;;6126556;23;86981;-68
2023/07/10 05:36:35;;;;;;;7.68;1.90;;;25.00;61.90;;;;;;6126271;23;87644;-69
2023/07/10 05:39:01;;;;;;;6.10;2.55;;;25.00;62.10;;;;;;6124940;23;87346;-72
2023/07/10 05:41:26;;;;;;;5.20;1.85;;;25.00;62.60;;;;;;6126425;23;88616;-70
2023/07/10 05:43:52;;;;;;;6.50;1.95;;;25.20;63.20;;;;;;6127344;23;87415;-71
2023/07/10 05:46:18;;;;;;;9.02;2.15;;;25.30;62.70;;;;;;6126927;23;87672;-69
2023/07/10 05:48:44;;;;;;;7.00;2.13;;;25.40;62.60;;;;;;6125182;23;89910;-71
2023/07/10 05:51:09;;;;;;;9.27;2.83;;;25.50;62.50;;;;;;6125854;23;88713;-69
2023/07/10 05:53:35;;;;;;;8.38;2.22;;;25.70;63.10;;;;;;6127086;23;87517;-68
2023/07/10 05:56:02;;;;;;;7.72;2.30;;;25.90;63.60;;;;;;6127249;23;87299;-69
2023/07/10 05:58:29;;;;;;;10.10;2.55;;;26.00;64.30;;;;;;6125428;23;88066;-69
2023/07/10 06:00:58;;;;;;;7.00;2.38;;;26.20;63.90;;;;;;6125002;23;87753;-71
2023/07/10 06:03:24;;;;;;;;;;;26.30;64.20;;;;;;6127349;23;87231;-68
2023/07/10 06:05:58;;;;;;;8.82;2.58;;;26.50;63.80;;;;;;6128482;23;86598;-69
2023/07/10 06:08:25;;;;;;;5.32;1.83;;;26.50;63.80;;;;;;6126042;23;88265;-70
2023/07/10 06:10:51;;;;;;;6.63;1.88;;;26.50;63.50;;;;;;6125491;23;87715;-69
2023/07/10 06:13:17;;;;;;;10.68;2.08;;;26.30;63.70;;;;;;6125465;23;88302;-68
2023/07/10 06:15:48;;;;;;;6.68;1.80;;;26.20;63.90;;;;;;6126636;23;87332;-69
2023/07/10 06:18:15;;;;;;;7.63;1.95;;;26.10;63.70;;;;;;6125637;23;87595;-70
2023/07/10 06:20:41;;;;;;;4.70;1.77;;;25.90;63.60;;;;;;6126664;23;88397;-70
2023/07/10 06:23:07;;;;;;;6.15;1.65;;;25.80;63.60;;;;;;6126112;23;87398;-70
2023/07/10 06:25:33;;;;;;;7.03;1.77;;;25.70;63.70;;;;;;6127486;23;87393;-69
2023/07/10 06:27:58;;;;;;;3.75;1.60;;;25.50;63.70;;;;;;6127904;23;88270;-69
2023/07/10 06:30:24;;;;;;;7.22;2.00;;;25.40;64.40;;;;;;6127776;23;87775;-68
2023/07/10 06:32:50;;;;;;;8.15;2.38;;;25.20;64.90;;;;;;6127478;23;87314;-71
2023/07/10 06:35:16;;;;;;;8.93;1.90;;;25.10;65.60;;;;;;6127330;23;87319;-71
2023/07/10 06:37:44;;;;;;;6.40;1.52;;;24.90;65.80;;;;;;6126389;23;88345;-70
2023/07/10 06:40:15;;;;;;;6.72;1.70;;;24.80;64.80;;;;;;6126627;23;88675;-70
2023/07/10 06:42:42;;;;;;;8.82;1.85;;;24.70;65.20;;;;;;6126384;23;87343;-70
2023/07/10 06:45:10;;;;;;;12.32;1.90;;;24.60;65.30;;;;;;6128019;23;87281;-70
2023/07/10 06:47:43;;;;;;;14.35;2.00;;;24.40;65.00;;;;;;6127724;23;87704;-71
2023/07/10 06:50:12;;;;;;;12.23;1.67;;;24.40;65.30;;;;;;6127455;23;89136;-69
2023/07/10 06:52:40;;;;;;;11.45;1.95;;;24.30;65.40;;;;;;6127173;23;87262;-70
2023/07/10 06:55:07;;;;;;;17.52;2.20;;;24.30;65.80;;;;;;6128530;23;86573;-70
2023/07/10 06:57:34;;;;;;;8.52;1.73;;;24.30;66.90;;;;;;6127197;23;88109;-70
2023/07/10 06:59:59;;;;;;;8.63;1.85;;;24.20;67.80;;;;;;6126779;23;87651;-70
2023/07/10 07:02:26;;;;;;;11.68;1.75;;;24.30;67.80;;;;;;6126901;23;87998;-69
2023/07/10 07:04:52;;;;;;;10.73;2.65;;;24.20;68.60;;;;;;6127340;23;87381;-71
2023/07/10 07:07:17;;;;;;;9.20;1.98;;;24.20;70.30;;;;;;6127158;23;87251;-70
2023/07/10 07:09:43;;;;;;;14.15;2.17;;;24.10;70.50;;;;;;6126026;23;87555;-68
2023/07/10 07:12:10;;;;;;;13.68;2.33;;;24.10;70.40;;;;;;6127215;23;87028;-69
2023/07/10 07:14:36;;;;;;;6.63;1.70;;;24.00;71.60;;;;;;6127497;23;87038;-68
2023/07/10 07:17:01;;;;;;;11.57;2.97;;;24.00;72.00;;;;;;6125729;23;88509;-67
2023/07/10 07:19:27;;;;;;;9.63;2.50;;;24.00;72.70;;;;;;6127045;23;87966;-70
2023/07/10 07:21:53;;;;;;;8.30;2.15;;;24.10;73.90;;;;;;6126342;23;87274;-70
2023/07/10 07:24:19;;;;;;;7.15;1.80;;;24.10;74.70;;;;;;6126989;23;87267;-69
2023/07/10 07:26:44;;;;;;;12.23;2.33;;;24.30;75.60;;;;;;6125982;23;88438;-68
2023/07/10 07:29:10;;;;;;;9.52;2.25;;;24.30;76.70;;;;;;6125814;23;88678;-69
2023/07/10 07:31:38;;;;;;;12.95;2.50;;;24.30;77.40;;;;;;6126507;23;87462;-70
2023/07/10 07:34:04;;;;;;;14.02;2.85;;;24.40;78.10;;;;;;6126550;23;87743;-71
2023/07/10 07:36:34;;;;;;;8.23;2.60;;;24.50;77.50;;;;;;6126719;23;88737;-70
2023/07/10 07:39:03;;;;;;;10.52;3.20;;;24.70;77.30;;;;;;6126734;23;87703;-71
2023/07/10 07:41:31;;;;;;;7.88;2.58;;;24.70;77.90;;;;;;6126935;23;87415;-69
2023/07/10 07:44:01;;;;;;;9.05;2.60;;;24.60;80.00;;;;;;6127282;23;86387;-69
2023/07/10 07:46:27;;;;;;;;;;;24.60;80.10;;;;;;6127174;23;89187;-69
2023/07/10 07:48:52;;;;;;;8.55;2.60;;;24.50;78.60;;;;;;6128601;23;87532;-70
2023/07/10 07:51:18;;;;;;;8.32;3.10;;;24.50;78.60;;;;;;6127085;23;87858;-69
2023/07/10 07:53:44;;;;;;;7.70;2.83;;;24.50;78.20;;;;;;6126995;23;88000;-68
2023/07/10 07:56:10;;;;;;;5.45;2.10;;;24.40;78.50;;;;;;6126320;23;87432;-69
2023/07/10 07:58:36;;;;;;;7.28;2.55;;;24.40;80.20;;;;;;6127192;23;87350;-70
2023/07/10 08:01:02;;;;;;;9.48;2.75;;;24.50;78.90;;;;;;6126297;23;87372;-69
2023/07/10 08:03:29;;;;;;;7.45;2.33;;;24.90;77.10;;;;;;6127378;23;87383;-70
2023/07/10 08:05:55;;;;;;;9.63;2.53;;;25.20;77.10;;;;;;6127459;23;87839;-71
2023/07/10 08:08:22;;;;;;;7.13;2.53;;;26.30;75.30;;;;;;6128552;23;86928;-69
2023/07/10 08:10:49;;;;;;;9.10;2.97;;;27.10;70.70;;;;;;6128176;23;87361;-70
2023/07/10 08:13:18;;;;;;;7.22;2.90;;;29.90;69.20;;;;;;6128894;23;87394;-69
2023/07/10 08:15:43;;;;;;;5.95;2.95;;;32.40;61.80;;;;;;6127441;23;89264;-69
2023/07/10 08:18:10;;;;;;;8.30;2.90;;;34.80;56.00;;;;;;6127828;23;88660;-71
2023/07/10 08:20:36;;;;;;;7.18;3.00;;;36.80;49.40;;;;;;6127907;23;87469;-70
2023/07/10 08:23:04;;;;;;;10.35;3.33;;;38.20;47.90;;;;;;6128136;23;87335;-71
2023/07/10 08:25:30;;;;;;;11.05;3.53;;;38.00;47.70;;;;;;6127864;23;87562;-71
2023/07/10 08:27:59;;;;;;;10.43;3.83;;;37.70;47.70;;;;;;6128656;23;87661;-68
2023/07/10 08:30:25;;;;;;;6.90;3.80;;;37.70;46.40;;;;;;6128574;23;87214;-68
2023/07/10 08:32:51;;;;;;;10.35;4.55;;;38.60;44.60;;;;;;6129799;23;86265;-71
2023/07/10 08:35:16;;;;;;;8.15;4.38;;;39.80;44.30;;;;;;6127521;23;88891;-70
2023/07/10 08:37:42;;;;;;;9.27;4.97;;;40.70;43.20;;;;;;6128374;23;87861;-70
2023/07/10 08:40:30;;;;;;;14.75;5.55;;;41.80;42.00;;;;;;6127849;23;88763;-70
2023/07/10 08:42:57;;;;;;;9.05;4.35;;;41.90;39.60;;;;;;6128989;23;87579;-69
2023/07/10 08:45:34;;;;;;;10.00;5.20;;;41.90;38.80;;;;;;6127738;23;88096;-71
2023/07/10 08:48:27;;;;;;;13.13;5.15;;;42.00;39.50;;;;;;6128038;23;88569;-69
2023/07/10 08:50:57;;;;;;;11.52;5.32;;;42.40;38.50;;;;;;6101967;23;87304;-69
2023/07/10 08:53:27;;;;;;;10.25;5.75;;;42.50;38.90;;;;;;6128203;23;87319;-69
2023/07/10 08:56:08;;;;;;;9.15;5.07;;;42.70;38.30;;;;;;6127704;23;89488;-69
2023/07/10 08:58:37;;;;;;;8.05;5.30;;;43.20;38.00;;;;;;6128248;23;88464;-71
2023/07/10 09:01:09;;;;;;;8.32;5.10;;;43.00;37.80;;;;;;6127600;23;87590;-69
2023/07/10 09:03:49;;;;;;;10.93;5.30;;;43.00;38.10;;;;;;6128139;23;87147;-69
2023/07/10 09:06:20;;;;;;;11.77;6.18;;;43.70;37.50;;;;;;6126766;23;89653;-69
2023/07/10 09:08:52;;;;;;;12.68;5.95;;;44.10;39.40;;;;;;6127188;23;88775;-70
2023/07/10 09:11:18;;;;;;;10.18;5.70;;;44.80;37.40;;;;;;6128018;23;87573;-71
2023/07/10 09:13:51;;;;;;;14.70;5.53;;;45.00;38.30;;;;;;6127675;23;87296;-71
2023/07/10 09:16:20;;;;;;;9.75;6.30;;;45.50;36.40;;;;;;6126410;23;87598;-70
2023/07/10 09:19:10;;;;;;;10.50;6.93;;;45.60;36.40;;;;;;6127314;23;87290;-71
2023/07/10 09:21:39;;;;;;;9.05;4.72;;;45.20;36.30;;;;;;6128039;23;87485;-71
2023/07/10 09:24:11;;;;;;;14.55;6.82;;;45.00;36.80;;;;;;6129039;23;86303;-71
2023/07/10 09:26:38;;;;;;;14.00;6.32;;;45.60;36.70;;;;;;6126393;23;87586;-70
2023/07/10 09:29:10;;;;;;;11.93;8.35;;;45.80;35.90;;;;;;6127593;23;87808;-70
2023/07/10 09:32:10;;;;;;;9.57;6.13;;;46.20;36.20;;;;;;6126066;23;88212;-70
2023/07/10 09:35:00;;;;;;;7.70;5.75;;;46.70;35.60;;;;;;6128568;23;87162;-70
2023/07/10 09:37:36;;;;;;;21.55;6.70;;;46.90;35.60;;;;;;6126883;23;87543;-71
2023/07/10 09:40:18;;;;;;;11.32;7.25;;;47.10;36.30;;;;;;6127920;23;87396;-70
2023/07/10 09:42:44;;;;;;;9.43;5.82;;;47.60;35.50;;;;;;6127742;23;87279;-72
2023/07/10 09:45:14;;;;;;;11.52;7.25;;;48.30;35.00;;;;;;6128031;23;87555;-69
2023/07/10 09:47:44;;;;;;;8.98;6.53;;;47.70;34.10;;;;;;6127273;23;88053;-69
2023/07/10 09:50:17;;;;;;;11.90;6.85;;;48.00;36.20;;;;;;6128021;23;87617;-69
2023/07/10 09:52:55;;;;;;;9.73;5.78;;;48.30;34.90;;;;;;6127778;23;87235;-69
2023/07/10 09:55:22;;;;;;;10.73;6.72;;;48.30;34.10;;;;;;6127848;23;87240;-68
2023/07/10 09:57:56;;;;;;;8.95;7.05;;;48.60;34.80;;;;;;6127135;23;88382;-69
2023/07/10 10:00:22;;;;;;;8.48;5.82;;;48.40;33.90;;;;;;6127646;23;89215;-70
2023/07/10 10:02:53;;;;;;;9.88;7.05;;;48.10;34.40;;;;;;6128034;23;87317;-68
2023/07/10 10:05:20;;;;;;;8.05;5.80;;;47.70;34.30;;;;;;6127669;23;87358;-68
2023/07/10 10:07:48;;;;;;;10.90;6.43;;;46.70;34.00;;;;;;6128120;23;87671;-68
2023/07/10 10:10:29;;;;;;;9.27;4.63;;;45.70;35.20;;;;;;6125174;23;87460;-69
2023/07/10 10:13:20;;;;;;;9.88;5.72;;;44.70;35.50;;;;;;6125653;23;87558;-68
2023/07/10 10:16:03;;;;;;;7.38;4.75;;;43.50;36.50;;;;;;6124404;23;86911;-70
2023/07/10 10:18:32;;;;;;;8.63;4.32;;;42.00;38.00;;;;;;6096037;23;88070;-67
2023/07/10 10:21:00;;;;;;;10.25;5.18;;;40.60;41.40;;;;;;6068411;23;90928;-67
2023/07/10 10:23:31;;;;;;;9.38;3.97;;;39.10;41.60;;;;;;6093335;23;88527;-68
2023/07/10 10:26:08;;;;;;;7.55;3.47;;;38.20;42.10;;;;;;6095830;23;87423;-69
2023/07/10 10:28:44;;;;;;;6.28;3.78;;;38.30;43.60;;;;;;6096106;23;87834;-67
2023/07/10 10:31:13;;;;;;;7.13;3.75;;;38.30;43.10;;;;;;6096237;23;87746;-67
2023/07/10 10:34:04;;;;;;;8.52;3.58;;;38.20;42.90;;;;;;6096541;23;87342;-68
2023/07/10 10:36:59;;;;;;;13.10;3.35;;;38.10;42.90;;;;;;6098384;23;87357;-66
2023/07/10 10:39:51;;;;;;;6.60;3.75;;;38.00;43.10;;;;;;6095503;23;88102;-66
2023/07/10 10:42:38;;;;;;;8.65;3.10;;;37.70;45.40;;;;;;6094033;23;87810;-68
2023/07/10 10:45:32;;;;;;;6.30;3.22;;;37.30;46.70;;;;;;6092622;23;87265;-68
2023/07/10 10:48:10;;;;;;;8.80;3.38;;;36.60;47.70;;;;;;6096264;23;87520;-67
2023/07/10 10:51:04;;;;;;;6.13;3.45;;;36.50;47.60;;;;;;6096255;23;89088;-68
2023/07/10 10:53:45;;;;;;;8.25;2.97;;;35.80;48.80;;;;;;6090412;23;88615;-67
2023/07/10 10:56:18;;;;;;;;;;;35.70;50.40;;;;;;6095812;23;87375;-67
2023/07/10 10:59:10;;;;;;;9.95;3.35;;;35.30;49.90;;;;;;6098870;23;86951;-66
2023/07/10 11:01:51;;;;;;;9.93;3.92;;;35.20;51.40;;;;;;6051731;23;87907;-67
2023/07/10 11:04:34;;;;;;;8.27;3.60;;;35.00;50.90;;;;;;6097560;23;87385;-66
2023/07/10 11:07:04;;;;;;;6.78;3.45;;;34.70;50.90;;;;;;6097901;23;87022;-66
2023/07/10 11:09:37;;;;;;;9.68;4.25;;;34.50;52.00;;;;;;6098862;23;86488;-66
2023/07/10 11:12:04;;;;;;;9.18;3.95;;;34.30;52.70;;;;;;6096720;23;87523;-67
2023/07/10 11:14:30;;;;;;;8.27;3.38;;;34.30;52.40;;;;;;6097587;23;89854;-67
2023/07/10 11:16:57;;;;;;;7.95;3.85;;;34.30;52.40;;;;;;6106926;23;88255;-66
2023/07/10 11:19:30;;;;;;;8.80;3.90;;;34.10;53.90;;;;;;6128372;23;87380;-67
2023/07/10 11:21:56;;;;;;;7.45;4.38;;;34.10;52.80;;;;;;6127033;23;88050;-66
2023/07/10 11:24:32;;;;;;;8.27;3.50;;;33.90;53.80;;;;;;6126799;23;87285;-66
2023/07/10 11:27:28;;;;;;;10.77;4.00;;;33.70;52.70;;;;;;6127391;23;87268;-68
2023/07/10 11:30:05;;;;;;;6.80;3.17;;;33.60;53.30;;;;;;6115573;23;88391;-66
2023/07/10 11:32:34;;;;;;;9.38;3.45;;;33.50;53.20;;;;;;6126802;23;89908;-66
2023/07/10 11:35:15;;;;;;;10.93;3.75;;;33.50;52.80;;;;;;6127625;23;87753;-67
2023/07/10 11:38:13;;;;;;;6.80;2.92;;;33.50;54.70;;;;;;6127154;23;87024;-67
2023/07/10 11:40:41;;;;;;;9.55;3.22;;;33.50;53.80;;;;;;6128256;23;87332;-67
2023/07/10 11:43:25;;;;;;;14.18;3.38;;;33.60;55.40;;;;;;6126857;23;89214;-67
2023/07/10 11:46:05;;;;;;;6.68;3.42;;;33.20;52.60;;;;;;6128085;23;88234;-70
2023/07/10 11:48:38;;;;;;;8.88;3.42;;;33.10;53.60;;;;;;6128459;23;87328;-68
2023/07/10 11:51:24;;;;;;;6.43;3.53;;;33.00;53.40;;;;;;6128972;23;87248;-67
2023/07/10 11:54:09;;;;;;;8.02;3.38;;;32.80;54.70;;;;;;6127690;23;88150;-67
2023/07/10 11:56:35;;;;;;;10.80;3.83;;;32.90;55.00;;;;;;6128777;23;87887;-68
2023/07/10 11:59:23;;;;;;;11.65;4.25;;;33.30;55.00;;;;;;6128722;23;87300;-67
2023/07/10 12:01:49;;;;;;;;;;;33.70;53.80;;;;;;6129654;23;86585;-67
2023/07/10 12:04:15;;;;;;;8.52;3.13;;;34.00;53.90;;;;;;6129732;23;87535;-67
2023/07/10 12:06:45;;;;;;;11.15;4.10;;;34.00;51.30;;;;;;6128543;23;87934;-67
2023/07/10 12:09:11;;;;;;;12.27;4.57;;;33.90;50.80;;;;;;6127651;23;88361;-68
2023/07/10 12:11:38;;;;;;;11.02;4.35;;;33.60;52.20;;;;;;6128749;23;87552;-66
2023/07/10 12:14:11;;;;;;;11.75;3.63;;;33.50;53.40;;;;;;6127755;23;87063;-67
2023/07/10 12:16:52;;;;;;;6.25;3.17;;;33.50;54.60;;;;;;6127415;23;87937;-67
2023/07/10 12:19:27;;;;;;;9.25;4.18;;;33.60;54.20;;;;;;6128910;23;87560;-67
2023/07/10 12:21:52;;;;;;;9.75;4.32;;;33.60;52.10;;;;;;6128585;23;87409;-68
2023/07/10 12:24:19;;;;;;;9.23;3.78;;;33.30;54.30;;;;;;6128138;23;88273;-67
2023/07/10 12:26:54;;;;;;;11.68;3.13;;;33.30;55.00;;;;;;6127913;23;87722;-67
2023/07/10 12:29:19;;;;;;;7.07;3.30;;;33.20;53.90;;;;;;6128596;23;87278;-70
2023/07/10 12:31:46;;;;;;;9.10;3.65;;;33.10;54.90;;;;;;6128178;23;87448;-67
2023/07/10 12:34:25;;;;;;;8.82;3.13;;;33.10;53.00;;;;;;6127529;23;87944;-66
2023/07/10 12:36:54;;;;;;;8.02;3.63;;;33.10;56.00;;;;;;6127738;23;87793;-68
2023/07/10 12:39:21;;;;;;;7.68;3.95;;;33.00;54.80;;;;;;6128036;23;87300;-66
2023/07/10 12:41:51;;;;;;;11.95;3.45;;;33.00;56.50;;;;;;6128464;23;87460;-69
2023/07/10 12:44:25;;;;;;;8.65;4.18;;;33.00;54.60;;;;;;6127852;23;88187;-67
2023/07/10 12:47:04;;;;;;;8.85;3.80;;;32.80;54.60;;;;;;6128320;23;88309;-67
2023/07/10 12:49:31;;;;;;;5.88;3.05;;;32.60;54.80;;;;;;6128142;23;87238;-66
2023/07/10 12:52:00;;;;;;;10.55;4.32;;;32.70;55.50;;;;;;6128537;23;86572;-69
2023/07/10 12:54:33;;;;;;;7.90;4.15;;;32.90;55.10;;;;;;6128115;23;88011;-67
2023/07/10 12:56:59;;;;;;;9.32;3.88;;;32.90;55.50;;;;;;6127930;23;87213;-68
2023/07/10 12:59:35;;;;;;;7.07;3.38;;;32.90;55.10;;;;;;6128025;23;88255;-70
2023/07/10 13:02:22;;;;;;;10.10;3.67;;;33.00;57.80;;;;;;6129268;23;87602;-67
2023/07/10 13:04:54;;;;;;;7.05;3.17;;;33.10;56.70;;;;;;6128188;23;88065;-68
2023/07/10 13:07:41;;;;;;;11.77;4.15;;;33.10;56.00;;;;;;6126881;23;87367;-67
2023/07/10 13:10:21;;;;;;;8.07;3.70;;;33.00;56.60;;;;;;6128289;23;87683;-68
2023/07/10 13:12:50;;;;;;;9.60;3.88;;;33.10;58.00;;;;;;6127880;23;87833;-65
2023/07/10 13:15:17;;;;;;;9.93;5.05;;;33.10;55.50;;;;;;6127480;23;88033;-67
2023/07/10 13:17:56;;;;;;;10.32;3.97;;;33.00;55.40;;;;;;6126964;23;87992;-67
2023/07/10 13:20:25;;;;;;;7.85;3.75;;;33.10;57.50;;;;;;6128342;23;87014;-66
2023/07/10 13:22:54;;;;;;;10.68;3.83;;;33.10;57.00;;;;;;6128521;23;87353;-65
2023/07/10 13:25:20;;;;;;;11.48;4.20;;;33.10;55.80;;;;;;6126696;23;88894;-66
2023/07/10 13:27:46;;;;;;;8.85;3.42;;;32.70;56.50;;;;;;6127568;23;88097;-66
2023/07/10 13:30:19;;;;;;;11.68;3.78;;;32.60;56.60;;;;;;6127978;23;87363;-66
2023/07/10 13:32:44;;;;;;;6.82;3.15;;;32.60;57.40;;;;;;6127925;23;87049;-66
2023/07/10 13:35:10;;;;;;;9.57;3.97;;;32.70;56.20;;;;;;6127491;23;87266;-66
2023/07/10 13:37:37;;;;;;;8.75;4.10;;;32.70;57.70;;;;;;6127585;23;87380;-68
2023/07/10 13:40:03;;;;;;;7.80;3.50;;;32.90;57.80;;;;;;6127935;23;87369;-66
2023/07/10 13:42:32;;;;;;;7.75;2.92;;;33.10;57.90;;;;;;6127598;23;86311;-71
2023/07/10 13:44:57;;;;;;;8.43;4.03;;;33.10;57.50;;;;;;6126038;23;87486;-67
2023/07/10 13:47:26;;;;;;;7.75;3.97;;;33.10;58.70;;;;;;6125339;23;87563;-69
2023/07/10 13:49:52;;;;;;;;;;;33.20;58.30;;;;;;6127821;23;88505;-67
2023/07/10 13:52:23;;;;;;;9.10;3.83;;;33.10;57.20;;;;;;6129065;23;87444;-67
2023/07/10 13:54:50;;;;;;;8.77;3.40;;;33.10;56.60;;;;;;6125971;23;87469;-67
2023/07/10 13:57:22;;;;;;;6.22;3.22;;;33.00;56.70;;;;;;6126857;23;87872;-66
2023/07/10 13:59:48;;;;;;;9.27;3.45;;;33.00;55.40;;;;;;6127883;23;87298;-67
2023/07/10 14:02:36;;;;;;;9.10;3.42;;;33.00;56.90;;;;;;6125962;23;87036;-66
2023/07/10 14:05:08;;;;;;;8.10;3.45;;;32.80;56.40;;;;;;6126516;23;88061;-67
2023/07/10 14:07:34;;;;;;;8.43;2.72;;;32.90;55.40;;;;;;6127717;23;88696;-68
2023/07/10 14:10:01;;;;;;;9.10;3.03;;;32.90;56.00;;;;;;6126006;23;87356;-67
2023/07/10 14:12:29;;;;;;;6.55;3.47;;;33.00;56.30;;;;;;6127946;23;87316;-68
2023/07/10 14:14:55;;;;;;;6.88;2.97;;;32.80;54.10;;;;;;6125969;23;89770;-66
2023/07/10 14:17:30;;;;;;;6.70;3.08;;;32.80;56.00;;;;;;6126837;23;88226;-68
2023/07/10 14:19:56;;;;;;;6.03;3.28;;;32.80;54.00;;;;;;6125979;23;87591;-67
2023/07/10 14:22:23;;;;;;;5.57;3.25;;;32.80;54.60;;;;;;6125936;23;87425;-67
2023/07/10 14:24:49;;;;;;;8.07;3.28;;;32.80;53.00;;;;;;6126004;23;88528;-67
2023/07/10 14:27:25;;;;;;;10.07;3.33;;;32.80;54.10;;;;;;6126164;23;86994;-68
2023/07/10 14:29:52;;;;;;;12.07;3.83;;;32.80;54.60;;;;;;6125559;23;87401;-67
2023/07/10 14:32:25;;;;;;;8.00;2.75;;;32.90;54.10;;;;;;6126305;23;86778;-68
2023/07/10 14:34:51;;;;;;;6.45;3.17;;;33.00;53.80;;;;;;6125349;23;91180;-68
2023/07/10 14:37:18;;;;;;;7.63;3.05;;;33.00;54.80;;;;;;6126561;23;88002;-67
2023/07/10 14:39:45;;;;;;;7.13;3.58;;;33.00;54.30;;;;;;6127106;23;87956;-68
2023/07/10 14:42:16;;;;;;;7.47;3.30;;;33.00;53.40;;;;;;6126894;23;87451;-67
2023/07/10 14:44:42;;;;;;;9.27;2.90;;;33.00;52.90;;;;;;6125359;23;90391;-67
2023/07/10 14:47:28;;;;;;;8.35;3.00;;;33.00;53.50;;;;;;6126463;23;88302;-67
2023/07/10 14:49:54;;;;;;;10.50;3.22;;;33.00;53.80;;;;;;6124812;23;87569;-66
2023/07/10 14:52:22;;;;;;;8.05;3.00;;;33.00;55.00;;;;;;6122935;23;87568;-68
2023/07/10 14:54:55;;;;;;;;;;;33.10;54.00;;;;;;6124200;23;87634;-67
2023/07/10 14:57:32;;;;;;;8.98;3.35;;;33.00;53.30;;;;;;6125967;23;86779;-67
2023/07/10 15:00:00;;;;;;;6.25;3.10;;;33.10;52.60;;;;;;6126271;23;87564;-66
2023/07/10 15:02:26;;;;;;;6.55;3.65;;;33.10;53.10;;;;;;6126217;23;87448;-66
2023/07/10 15:04:53;;;;;;;6.78;2.90;;;33.10;54.20;;;;;;6125372;23;89757;-68
2023/07/10 15:07:20;;;;;;;13.02;3.35;;;33.10;54.00;;;;;;6125873;23;88879;-66
2023/07/10 15:09:46;;;;;;;7.45;2.47;;;33.10;55.00;;;;;;6126922;23;87431;-66
2023/07/10 15:12:16;;;;;;;6.18;2.92;;;33.00;53.40;;;;;;6127402;23;87281;-69
2023/07/10 15:14:42;;;;;;;9.95;3.15;;;32.90;53.50;;;;;;6125922;23;87574;-68
2023/07/10 15:17:15;;;;;;;6.20;2.80;;;32.90;55.70;;;;;;6124785;23;87913;-66
2023/07/10 15:19:41;;;;;;;6.13;3.03;;;32.90;53.90;;;;;;6123667;23;87615;-67
2023/07/10 15:22:12;;;;;;;6.10;3.35;;;32.90;53.10;;;;;;6124433;23;86691;-67
2023/07/10 15:24:38;;;;;;;5.68;2.67;;;32.90;52.40;;;;;;6125976;23;87665;-67
2023/07/10 15:27:04;;;;;;;7.38;2.53;;;32.90;53.80;;;;;;6123823;23;87790;-70
2023/07/10 15:29:30;;;;;;;9.23;2.63;;;33.00;52.70;;;;;;6124797;23;87972;-69
2023/07/10 15:32:07;;;;;;;8.75;2.70;;;33.00;53.70;;;;;;6123702;23;87745;-68
2023/07/10 15:34:38;;;;;;;6.03;2.38;;;32.80;52.80;;;;;;6124224;23;88183;-67
2023/07/10 15:37:05;;;;;;;9.00;2.83;;;32.90;52.60;;;;;;6123999;23;87487;-67
2023/07/10 15:39:31;;;;;;;6.30;2.60;;;32.80;53.40;;;;;;6126388;23;87346;-67
2023/07/10 15:41:56;;;;;;;7.07;2.63;;;32.90;53.40;;;;;;6126896;23;87338;-66
2023/07/10 15:44:22;;;;;;;5.40;2.58;;;32.80;52.90;;;;;;6124812;23;87457;-69
2023/07/10 15:46:48;;;;;;;5.43;2.40;;;32.80;53.20;;;;;;6125836;23;88195;-68
2023/07/10 15:49:24;;;;;;;5.18;2.92;;;32.80;52.70;;;;;;6124721;23;87364;-68
2023/07/10 15:51:55;;;;;;;7.43;2.55;;;32.80;53.00;;;;;;6127391;23;86992;-69
2023/07/10 15:54:22;;;;;;;6.32;2.60;;;32.90;52.20;;;;;;6125307;23;89059;-69
2023/07/10 15:56:49;;;;;;;5.18;2.83;;;32.80;51.80;;;;;;6124467;23;88734;-68
2023/07/10 15:59:18;;;;;;;5.93;2.42;;;32.80;53.30;;;;;;6126745;23;87102;-68
2023/07/10 16:01:46;;;;;;;6.85;2.60;;;32.80;52.60;;;;;;6114099;23;87474;-69
2023/07/10 16:04:17;;;;;;;;;;;32.70;52.00;;;;;;6112871;23;88522;-67
2023/07/10 16:06:42;;;;;;;5.63;2.72;;;32.70;53.00;;;;;;6127062;23;87565;-69
2023/07/10 16:09:12;;;;;;;6.38;2.92;;;32.60;51.80;;;;;;6127437;23;87522;-68
2023/07/10 16:11:38;;;;;;;6.88;2.85;;;32.60;51.80;;;;;;6125694;23;86861;-69
2023/07/10 16:14:13;;;;;;;6.68;2.67;;;32.60;51.70;;;;;;6125946;23;87575;-68
2023/07/10 16:16:39;;;;;;;7.68;2.47;;;32.60;51.80;;;;;;6125272;23;88219;-68